Time;durP1;ratioP1;P1;durP2;ratioP2;P2;SDS_P1;SDS_P2;PMS_P1;PMS_P2;Temp;Humidity;BMP_temperature;BMP_pressure;BME280_temperature;BME280_humidity;BME280_pressure;Samples;Min_cycle;Max_cycle;Signal;HPM_P1;HPM_P2
2023/10/10 00:01:44;;;;;;;16.47;7.83;;;10.50;83.70;;;;;;4813021;29;20058;-93
2023/10/10 00:04:12;;;;;;;15.68;7.35;;;10.50;83.40;;;;;;4827853;29;20053;-92
2023/10/10 00:06:40;;;;;;;13.02;6.47;;;10.50;83.30;;;;;;4812913;29;20618;-93
2023/10/10 00:09:10;;;;;;;14.95;6.68;;;10.50;83.00;;;;;;4812668;29;20137;-94
2023/10/10 00:11:45;;;;;;;14.63;6.72;;;10.50;83.30;;;;;;4812891;29;20049;-92
2023/10/10 00:14:17;;;;;;;17.70;7.00;;;10.50;83.40;;;;;;4825064;29;20065;-92
2023/10/10 00:16:48;;;;;;;13.93;6.72;;;10.50;83.20;;;;;;4827416;29;20077;-92
2023/10/10 00:19:20;;;;;;;12.98;5.95;;;10.50;83.30;;;;;;4812248;29;20038;-92
2023/10/10 00:21:50;;;;;;;12.43;6.00;;;10.50;83.20;;;;;;4805812;29;20103;-92
2023/10/10 00:24:20;;;;;;;12.02;5.63;;;10.50;82.90;;;;;;4812110;29;20096;-92
2023/10/10 00:26:48;;;;;;;12.77;6.00;;;10.50;82.80;;;;;;4827601;29;20109;-92
2023/10/10 00:29:22;;;;;;;14.18;6.32;;;10.40;83.10;;;;;;4812150;29;20042;-92
2023/10/10 00:32:09;;;;;;;13.85;6.50;;;10.30;83.20;;;;;;4827381;29;20042;-93
2023/10/10 00:34:37;;;;;;;13.50;6.05;;;10.30;83.40;;;;;;4812641;29;20504;-92
2023/10/10 00:37:08;;;;;;;11.48;5.53;;;10.40;83.50;;;;;;4812868;29;20050;-93
2023/10/10 00:39:36;;;;;;;10.93;5.27;;;10.40;83.40;;;;;;4827263;29;20042;-93
2023/10/10 00:42:07;;;;;;;13.23;6.13;;;10.30;83.20;;;;;;4813250;29;20079;-93
2023/10/10 00:44:38;;;;;;;13.85;5.80;;;10.30;83.40;;;;;;4812816;29;20050;-93
2023/10/10 00:47:21;;;;;;;12.27;5.78;;;10.30;83.50;;;;;;4828035;29;20395;-93
2023/10/10 00:49:50;;;;;;;11.43;5.85;;;10.30;83.40;;;;;;4827898;29;20054;-93
2023/10/10 00:52:17;;;;;;;12.67;5.87;;;10.40;83.40;;;;;;4813150;29;20084;-93
2023/10/10 00:54:45;;;;;;;12.25;6.15;;;10.40;83.30;;;;;;4813048;29;20070;-93
2023/10/10 00:57:14;;;;;;;14.40;5.75;;;10.40;83.10;;;;;;4813251;29;20106;-94
2023/10/10 00:59:54;;;;;;;15.00;6.32;;;10.30;83.40;;;;;;4828048;29;20049;-93
2023/10/10 01:02:21;;;;;;;14.43;6.68;;;10.40;83.50;;;;;;4827639;29;20054;-93
2023/10/10 01:04:49;;;;;;;14.00;6.73;;;10.50;83.60;;;;;;4812659;29;20046;-93
2023/10/10 01:07:21;;;;;;;12.68;6.68;;;10.50;83.60;;;;;;4827357;29;20050;-93
2023/10/10 01:10:07;;;;;;;15.27;6.93;;;10.50;83.60;;;;;;4827508;29;20049;-93
2023/10/10 01:12:39;;;;;;;14.43;7.00;;;10.50;83.40;;;;;;4827245;29;20141;-92
2023/10/10 01:18:12;;;;;;;15.00;7.10;;;10.50;83.40;;;;;;4823814;29;20143;-93
2023/10/10 01:20:50;;;;;;;16.55;6.82;;;10.50;83.50;;;;;;4809098;29;20050;-93
2023/10/10 01:23:26;;;;;;;12.77;6.47;;;10.50;83.50;;;;;;4821498;29;20042;-92
2023/10/10 01:26:05;;;;;;;13.80;6.85;;;10.50;83.20;;;;;;4812431;29;20054;-93
2023/10/10 01:28:35;;;;;;;16.33;6.35;;;10.50;83.20;;;;;;4809228;29;20076;-94
2023/10/10 01:31:07;;;;;;;15.07;6.63;;;10.50;83.30;;;;;;4820569;29;20050;-94
2023/10/10 01:36:03;;;;;;;13.80;6.20;;;10.50;83.20;;;;;;4830496;29;20061;-92
2023/10/10 01:38:59;;;;;;;15.43;6.82;;;10.50;83.20;;;;;;4815439;29;20087;-93
2023/10/10 01:41:38;;;;;;;13.05;6.03;;;10.50;82.90;;;;;;4801967;29;20054;-93
2023/10/10 01:44:12;;;;;;;12.63;5.93;;;10.50;83.10;;;;;;4815329;29;20061;-94
2023/10/10 01:46:40;;;;;;;14.05;6.15;;;10.50;83.00;;;;;;4815424;29;20054;-94
2023/10/10 01:49:30;;;;;;;12.38;5.90;;;10.50;83.10;;;;;;4815497;29;20042;-93
2023/10/10 01:51:58;;;;;;;14.05;6.40;;;10.50;83.10;;;;;;4830262;29;20149;-93
2023/10/10 01:54:41;;;;;;;13.95;6.70;;;10.60;83.00;;;;;;4815297;29;20046;-93
2023/10/10 01:57:20;;;;;;;15.40;7.13;;;10.60;82.90;;;;;;4830051;29;20053;-93
2023/10/10 01:59:49;;;;;;;13.48;6.32;;;10.60;82.90;;;;;;4830129;29;20049;-93
2023/10/10 02:02:18;;;;;;;14.10;6.70;;;10.60;83.10;;;;;;4814843;29;20058;-92
2023/10/10 02:04:47;;;;;;;15.18;6.95;;;10.50;83.20;;;;;;4815009;29;20058;-94
2023/10/10 02:07:23;;;;;;;13.60;6.38;;;10.50;83.40;;;;;;4815139;29;20054;-93
2023/10/10 02:10:04;;;;;;;12.40;5.80;;;10.50;83.50;;;;;;4815479;29;20054;-93
2023/10/10 02:12:33;;;;;;;13.02;6.00;;;10.50;83.60;;;;;;4811680;29;20529;-94
2023/10/10 02:15:01;;;;;;;12.07;5.90;;;10.50;83.50;;;;;;4822811;29;20055;-94
2023/10/10 02:17:30;;;;;;;13.02;6.30;;;10.60;83.30;;;;;;4796885;29;20061;-93
2023/10/10 02:20:17;;;;;;;12.57;6.05;;;10.60;83.00;;;;;;4811658;29;20137;-93
2023/10/10 02:22:51;;;;;;;13.17;5.20;;;10.60;83.10;;;;;;4811743;29;20050;-93
2023/10/10 02:27:56;;;;;;;13.40;6.22;;;10.60;83.20;;;;;;4829412;29;20050;-93
2023/10/10 02:30:34;;;;;;;13.38;5.68;;;10.70;83.20;;;;;;4829742;29;20049;-93
2023/10/10 02:33:16;;;;;;;16.73;7.97;;;10.70;83.20;;;;;;4814474;29;20144;-93
2023/10/10 02:35:56;;;;;;;20.53;8.83;;;10.60;83.60;;;;;;4814662;29;20064;-94
2023/10/10 02:38:37;;;;;;;22.15;9.57;;;10.60;83.80;;;;;;4814727;29;20221;-93
2023/10/10 02:46:37;;;;;;;28.00;12.43;;;10.70;84.30;;;;;;4829113;29;20050;-92
2023/10/10 02:49:09;;;;;;;26.17;11.77;;;10.80;84.10;;;;;;4826218;29;20437;-93
2023/10/10 02:51:40;;;;;;;27.42;11.73;;;10.90;83.90;;;;;;4814147;29;20078;-93
2023/10/10 02:56:57;;;;;;;23.90;11.05;;;10.90;83.80;;;;;;4828835;29;20054;-92
2023/10/10 02:59:31;;;;;;;34.40;13.90;;;10.90;83.80;;;;;;4829044;29;20048;-92
2023/10/10 03:02:04;;;;;;;31.27;13.90;;;10.90;83.90;;;;;;4829003;29;20077;-93
2023/10/10 03:07:19;;;;;;;28.38;12.13;;;10.90;83.70;;;;;;4828829;29;20080;-92
2023/10/10 03:10:38;;;;;;;30.63;13.25;;;11.00;83.50;;;;;;4813946;29;20064;-93
2023/10/10 03:12:38;;;;;;;27.13;11.93;;;11.00;83.30;;;;;;4824492;29;20064;-93
2023/10/10 03:17:52;;;;;;;15.35;6.38;;;11.00;83.00;;;;;;4828702;29;20084;-93
2023/10/10 03:20:48;;;;;;;13.98;6.22;;;10.80;83.00;;;;;;4813608;29;20416;-93
2023/10/10 03:26:04;;;;;;;18.60;8.30;;;10.60;83.50;;;;;;4826922;29;20501;-92
2023/10/10 03:28:41;;;;;;;18.17;7.90;;;10.60;83.90;;;;;;4806653;29;20085;-92
2023/10/10 03:31:23;;;;;;;13.23;5.72;;;10.70;83.90;;;;;;4828018;29;20196;-93
2023/10/10 03:34:10;;;;;;;12.88;5.40;;;10.70;83.80;;;;;;4814086;29;20049;-93
2023/10/10 03:36:43;;;;;;;11.88;4.25;;;10.70;83.40;;;;;;4813144;29;20140;-92
2023/10/10 03:39:42;;;;;;;10.88;4.68;;;10.70;83.10;;;;;;4813216;29;20516;-93
2023/10/10 05:24:24;;;;;;;8.35;3.75;;;11.00;82.90;;;;;;4830538;29;20042;-92
2023/10/10 05:26:54;;;;;;;9.20;3.83;;;11.00;82.90;;;;;;4830492;29;20054;-91
2023/10/10 05:29:21;;;;;;;7.88;3.60;;;11.00;82.80;;;;;;4815543;29;20046;-91
2023/10/10 05:31:51;;;;;;;8.70;3.80;;;11.00;82.70;;;;;;4830208;29;20053;-92
2023/10/10 05:34:22;;;;;;;8.85;3.80;;;11.00;82.90;;;;;;4815495;29;20512;-91
2023/10/10 05:36:49;;;;;;;8.00;3.42;;;11.00;82.90;;;;;;4815249;29;20054;-92
2023/10/10 05:39:21;;;;;;;8.00;3.35;;;11.00;83.00;;;;;;4815462;29;20122;-92
2023/10/10 05:41:48;;;;;;;8.50;3.33;;;10.90;83.30;;;;;;4815416;29;20050;-92
2023/10/10 05:44:16;;;;;;;8.83;3.83;;;10.90;83.60;;;;;;4815428;29;20046;-92
2023/10/10 05:46:43;;;;;;;10.00;3.67;;;10.80;83.50;;;;;;4830165;29;20054;-92
2023/10/10 05:49:10;;;;;;;9.45;4.20;;;10.80;83.80;;;;;;4815347;29;20050;-92
2023/10/10 05:51:38;;;;;;;10.88;4.85;;;10.80;83.90;;;;;;4829871;29;20099;-92
2023/10/10 05:54:07;;;;;;;9.98;4.57;;;10.80;84.00;;;;;;4815003;29;20054;-92
2023/10/10 05:56:35;;;;;;;9.50;4.40;;;10.80;83.90;;;;;;4816201;29;20065;-92
2023/10/10 05:59:02;;;;;;;10.60;4.57;;;10.80;83.90;;;;;;4815013;29;20144;-92
2023/10/10 06:01:35;;;;;;;9.95;5.10;;;10.90;84.00;;;;;;4815058;29;20050;-92
2023/10/10 06:04:02;;;;;;;12.48;5.80;;;11.00;83.90;;;;;;4829778;29;20068;-93
2023/10/10 06:06:31;;;;;;;10.85;5.18;;;11.00;83.60;;;;;;4814914;29;20046;-92
2023/10/10 06:09:01;;;;;;;11.13;4.83;;;11.00;83.50;;;;;;4814965;29;20056;-92
2023/10/10 06:11:29;;;;;;;12.13;5.32;;;11.00;83.50;;;;;;4814655;29;20049;-92
2023/10/10 06:13:57;;;;;;;18.25;9.70;;;11.10;83.70;;;;;;4815002;29;20057;-92
2023/10/10 06:16:25;;;;;;;18.08;8.75;;;11.20;83.60;;;;;;4814435;29;20118;-92
2023/10/10 06:18:52;;;;;;;12.35;6.47;;;11.30;83.50;;;;;;4815004;29;20061;-93
2023/10/10 06:21:20;;;;;;;15.03;9.13;;;11.40;83.20;;;;;;4814731;29;20409;-92
2023/10/10 06:23:49;;;;;;;12.13;6.15;;;11.40;83.40;;;;;;4814656;29;20508;-92
2023/10/10 06:26:21;;;;;;;11.90;5.97;;;11.50;83.20;;;;;;4814752;29;20060;-92
2023/10/10 06:28:53;;;;;;;10.10;5.20;;;11.50;83.00;;;;;;4829468;29;20050;-93
2023/10/10 06:31:21;;;;;;;11.63;5.32;;;11.50;83.20;;;;;;4829637;29;20561;-92
2023/10/10 06:33:51;;;;;;;11.77;5.20;;;11.50;83.30;;;;;;4829470;29;20453;-93
2023/10/10 06:39:54;;;;;;;10.02;4.88;;;11.50;82.60;;;;;;4829349;29;20054;-92
2023/10/10 06:41:40;;;;;;;10.40;4.75;;;11.50;82.60;;;;;;4819999;29;20052;-93
2023/10/10 06:44:14;;;;;;;10.15;4.43;;;11.50;82.60;;;;;;4814425;29;20050;-93
2023/10/10 06:46:46;;;;;;;9.57;5.27;;;11.50;82.90;;;;;;4829339;29;20049;-92
2023/10/10 06:49:14;;;;;;;11.02;4.97;;;11.60;82.90;;;;;;4829321;29;20050;-92
2023/10/10 06:51:41;;;;;;;10.27;4.82;;;11.70;83.00;;;;;;4814269;29;20049;-92
2023/10/10 06:54:09;;;;;;;10.70;4.50;;;11.70;82.50;;;;;;4813873;29;20053;-94
2023/10/10 06:56:53;;;;;;;10.55;5.50;;;11.70;82.60;;;;;;4829069;29;20062;-93
2023/10/10 06:59:26;;;;;;;9.83;4.50;;;11.70;82.70;;;;;;4829156;29;20054;-93
2023/10/10 07:01:59;;;;;;;11.15;4.88;;;11.70;82.90;;;;;;4814103;29;20524;-93
2023/10/10 07:04:27;;;;;;;9.73;4.65;;;11.80;82.90;;;;;;4828979;29;20062;-93
2023/10/10 07:07:00;;;;;;;10.38;5.30;;;11.80;82.80;;;;;;4814085;29;20065;-92
2023/10/10 07:09:28;;;;;;;10.80;4.90;;;11.90;82.80;;;;;;4810775;29;20054;-94
2023/10/10 07:12:09;;;;;;;11.57;4.63;;;11.90;82.90;;;;;;4796090;29;20108;-93
2023/10/10 07:14:40;;;;;;;9.27;4.45;;;11.90;82.90;;;;;;4810679;29;20115;-93
2023/10/10 07:17:13;;;;;;;10.70;4.70;;;12.00;82.90;;;;;;4826047;29;20192;-94
2023/10/10 07:22:33;;;;;;;10.98;4.50;;;11.90;82.80;;;;;;4828685;29;20075;-92
2023/10/10 07:25:07;;;;;;;10.47;4.70;;;12.00;82.80;;;;;;4814067;29;20417;-93
2023/10/10 07:27:35;;;;;;;9.63;4.43;;;12.00;82.80;;;;;;4813144;29;20053;-92
2023/10/10 07:30:42;;;;;;;10.98;4.55;;;12.00;82.70;;;;;;4813535;29;20153;-92
2023/10/10 07:33:00;;;;;;;10.38;4.90;;;12.20;82.80;;;;;;4827711;29;20081;-92
2023/10/10 07:35:28;;;;;;;11.27;5.00;;;12.30;82.80;;;;;;4828843;29;20505;-92
2023/10/10 07:37:58;;;;;;;9.20;4.97;;;12.40;82.40;;;;;;4813097;29;21105;-92
2023/10/10 07:40:30;;;;;;;9.00;4.05;;;12.50;82.70;;;;;;4813631;29;20106;-92
2023/10/10 07:43:03;;;;;;;10.48;3.90;;;12.50;82.20;;;;;;4813209;29;20557;-92
2023/10/10 07:45:33;;;;;;;9.85;4.10;;;12.50;82.00;;;;;;4813410;29;20049;-93
2023/10/10 07:50:35;;;;;;;8.93;3.90;;;12.70;81.70;;;;;;4828506;29;20092;-92
2023/10/10 07:53:05;;;;;;;7.55;3.30;;;12.70;81.80;;;;;;4813223;29;20053;-92
2023/10/10 07:56:20;;;;;;;9.40;3.55;;;12.80;81.60;;;;;;4813392;29;20462;-93
2023/10/10 07:58:23;;;;;;;9.98;3.80;;;12.90;81.50;;;;;;4822272;29;20050;-92
2023/10/10 08:01:44;;;;;;;9.73;4.32;;;13.00;81.40;;;;;;4835764;29;20057;-93
2023/10/10 08:04:14;;;;;;;13.30;4.13;;;13.10;81.20;;;;;;4828015;29;20053;-93
2023/10/10 08:11:12;;;;;;;10.93;4.13;;;13.00;80.50;;;;;;4828166;29;20066;-93
2023/10/10 08:13:42;;;;;;;16.27;5.25;;;13.10;80.80;;;;;;4812946;29;20062;-92
2023/10/10 08:16:09;;;;;;;21.42;6.22;;;13.10;80.60;;;;;;4813152;29;20050;-93
2023/10/10 08:21:12;;;;;;;76.53;19.30;;;13.30;81.10;;;;;;4828057;29;20050;-92
2023/10/10 08:23:47;;;;;;;75.13;19.23;;;13.30;80.60;;;;;;4812947;29;20100;-92
2023/10/10 08:26:18;;;;;;;19.30;8.88;;;13.30;81.20;;;;;;4812677;29;20054;-93
2023/10/10 08:28:47;;;;;;;12.00;5.55;;;13.30;81.30;;;;;;4813643;29;20535;-92
2023/10/10 08:31:15;;;;;;;11.23;5.77;;;13.30;81.20;;;;;;4812728;29;20057;-93
2023/10/10 08:33:49;;;;;;;13.55;6.93;;;13.20;81.60;;;;;;4813008;29;20050;-93
2023/10/10 08:36:23;;;;;;;13.40;6.20;;;13.30;82.10;;;;;;4827679;29;20054;-94
2023/10/10 08:38:56;;;;;;;17.58;9.40;;;13.30;82.40;;;;;;4812812;29;20057;-93
2023/10/10 08:41:27;;;;;;;18.80;9.18;;;13.30;82.30;;;;;;4816154;29;20038;-92
2023/10/10 08:43:58;;;;;;;14.53;7.97;;;13.30;82.60;;;;;;4816436;29;20450;-94
2023/10/10 08:46:31;;;;;;;15.70;7.95;;;13.30;82.90;;;;;;4816477;29;20568;-94
2023/10/10 08:48:59;;;;;;;12.27;6.55;;;13.20;83.10;;;;;;4816292;29;20500;-93
2023/10/10 08:51:35;;;;;;;11.45;6.53;;;13.20;83.00;;;;;;4831348;29;20106;-92
2023/10/10 08:54:09;;;;;;;13.95;6.85;;;13.30;82.90;;;;;;4816483;29;20089;-93
2023/10/10 08:56:59;;;;;;;13.97;8.07;;;13.30;82.80;;;;;;4831155;29;20102;-93
2023/10/10 08:59:29;;;;;;;15.82;7.32;;;13.40;82.90;;;;;;4831101;29;20049;-93
2023/10/10 09:02:17;;;;;;;16.63;7.32;;;13.30;83.10;;;;;;4830943;29;20488;-93
2023/10/10 09:04:45;;;;;;;15.60;7.13;;;13.30;83.50;;;;;;4830761;29;20097;-93
2023/10/10 09:07:27;;;;;;;15.25;7.65;;;13.30;83.70;;;;;;4831132;29;20153;-93
2023/10/10 09:10:13;;;;;;;13.10;6.63;;;13.30;83.60;;;;;;4815890;29;20149;-93
2023/10/10 09:12:52;;;;;;;13.90;6.97;;;13.30;83.60;;;;;;4816051;29;20178;-93
2023/10/10 09:15:20;;;;;;;19.00;10.00;;;13.30;83.60;;;;;;4815866;29;20054;-93
2023/10/10 09:17:48;;;;;;;20.83;11.25;;;13.40;84.00;;;;;;4830980;29;20121;-93
2023/10/10 09:20:24;;;;;;;19.98;10.52;;;13.40;84.60;;;;;;4830626;29;20190;-93
2023/10/10 09:22:51;;;;;;;15.50;7.23;;;13.40;84.70;;;;;;4830678;29;20054;-93
2023/10/10 09:25:27;;;;;;;15.05;6.57;;;13.50;84.90;;;;;;4815606;29;20382;-93
2023/10/10 09:28:05;;;;;;;12.75;6.97;;;13.40;85.20;;;;;;4830571;29;20539;-92
2023/10/10 09:30:33;;;;;;;13.40;7.40;;;13.40;85.10;;;;;;4830795;29;20038;-93
2023/10/10 09:33:13;;;;;;;15.07;7.55;;;13.50;85.00;;;;;;4815679;29;20152;-93
2023/10/10 09:35:41;;;;;;;15.10;8.27;;;13.50;85.20;;;;;;4830942;29;20046;-92
2023/10/10 09:38:15;;;;;;;13.35;7.18;;;13.50;84.70;;;;;;4815429;29;20046;-93
2023/10/10 09:40:46;;;;;;;15.32;7.28;;;13.50;85.30;;;;;;4815855;29;20535;-93
2023/10/10 09:43:25;;;;;;;14.00;7.00;;;13.50;85.00;;;;;;4830481;29;20050;-93
2023/10/10 09:46:11;;;;;;;12.95;6.97;;;13.60;84.90;;;;;;4830286;29;20106;-93
2023/10/10 09:54:16;;;;;;;15.18;8.02;;;14.00;84.50;;;;;;4830135;29;20141;-94
2023/10/10 09:56:50;;;;;;;12.93;6.50;;;14.00;84.90;;;;;;4815122;29;20501;-93
2023/10/10 09:59:20;;;;;;;14.07;6.85;;;14.00;84.80;;;;;;4830372;29;20057;-93
2023/10/10 10:01:48;;;;;;;12.87;6.47;;;14.10;84.60;;;;;;4815308;29;20053;-93
2023/10/10 10:04:24;;;;;;;11.98;6.45;;;14.10;84.40;;;;;;4815309;29;20062;-93
2023/10/10 10:07:12;;;;;;;14.02;7.72;;;14.30;84.70;;;;;;4829990;29;20060;-94
2023/10/10 10:10:01;;;;;;;14.63;7.60;;;14.50;85.00;;;;;;4829969;29;20049;-94
2023/10/10 10:13:13;;;;;;;12.77;6.22;;;14.50;84.30;;;;;;4830129;29;20050;-94
2023/10/10 10:15:52;;;;;;;13.83;6.13;;;14.60;83.60;;;;;;4814945;29;20056;-93
2023/10/10 10:18:44;;;;;;;11.57;5.47;;;14.60;82.80;;;;;;4830018;29;20057;-95
2023/10/10 10:21:18;;;;;;;12.15;5.32;;;14.60;82.80;;;;;;4829760;29;20084;-95
2023/10/10 10:23:55;;;;;;;12.93;5.72;;;14.60;83.20;;;;;;4830022;29;20535;-94
2023/10/10 10:26:41;;;;;;;10.00;4.75;;;14.60;83.30;;;;;;4814810;29;20046;-93
2023/10/10 10:29:26;;;;;;;9.73;4.73;;;14.70;83.20;;;;;;4829990;29;20049;-93
2023/10/10 10:32:00;;;;;;;10.80;4.55;;;14.80;83.30;;;;;;4814476;29;20098;-93
2023/10/10 10:37:13;;;;;;;11.32;5.68;;;14.90;82.40;;;;;;4829851;29;20508;-93
2023/10/10 10:40:22;;;;;;;10.93;5.50;;;15.00;82.10;;;;;;4829740;29;20049;-94
2023/10/10 10:42:34;;;;;;;14.33;6.47;;;15.10;81.80;;;;;;4829189;29;20061;-92
2023/10/10 10:45:26;;;;;;;16.10;7.43;;;15.20;81.10;;;;;;4829489;29;20508;-93
2023/10/10 10:47:59;;;;;;;14.13;6.60;;;15.40;80.70;;;;;;4829367;29;20149;-93
2023/10/10 10:50:29;;;;;;;20.88;12.55;;;15.50;81.20;;;;;;4829243;29;20192;-93
2023/10/10 10:53:20;;;;;;;36.42;32.55;;;15.60;81.10;;;;;;4829445;29;20057;-93
2023/10/10 10:58:48;;;;;;;50.67;46.97;;;15.70;80.10;;;;;;4829185;29;20054;-94
2023/10/10 11:01:20;;;;;;;72.57;67.13;;;15.80;79.30;;;;;;4829764;29;20052;-93
2023/10/10 11:03:51;;;;;;;28.48;25.58;;;15.90;79.20;;;;;;4828167;29;20058;-94
2023/10/10 11:06:24;;;;;;;14.65;6.75;;;16.00;79.10;;;;;;4829199;29;20057;-94
2023/10/10 11:08:52;;;;;;;13.77;6.10;;;16.00;79.00;;;;;;4829093;29;20070;-93
2023/10/10 11:14:10;;;;;;;11.75;5.22;;;16.00;78.90;;;;;;4829089;29;20054;-93
2023/10/10 11:16:38;;;;;;;11.95;5.65;;;16.00;79.30;;;;;;4828998;29;20057;-93
2023/10/10 11:19:25;;;;;;;9.27;4.53;;;16.00;79.80;;;;;;4813856;29;20061;-93
2023/10/10 11:22:00;;;;;;;10.30;4.97;;;15.90;80.20;;;;;;4813780;29;20144;-93
2023/10/10 11:24:29;;;;;;;10.75;5.20;;;15.90;80.30;;;;;;4829162;29;20089;-93
2023/10/10 11:27:21;;;;;;;9.82;4.40;;;16.00;80.50;;;;;;4813722;29;20455;-93
2023/10/10 11:30:00;;;;;;;8.70;4.60;;;16.00;80.20;;;;;;4828602;29;20046;-93
2023/10/10 11:32:45;;;;;;;9.20;4.30;;;16.10;79.90;;;;;;4829039;29;20054;-94
2023/10/10 11:35:26;;;;;;;9.20;3.97;;;16.10;79.80;;;;;;4828675;29;20046;-93
2023/10/10 11:37:59;;;;;;;8.63;4.30;;;16.10;79.70;;;;;;4813829;29;20061;-93
2023/10/10 11:40:31;;;;;;;8.82;4.32;;;16.10;79.90;;;;;;4813586;29;20058;-93
2023/10/10 11:43:03;;;;;;;10.63;4.38;;;16.20;79.70;;;;;;4828689;29;20523;-94
2023/10/10 11:45:39;;;;;;;8.75;4.30;;;16.20;79.50;;;;;;4828496;29;20099;-93
2023/10/10 11:48:15;;;;;;;9.77;4.20;;;16.10;79.70;;;;;;4828664;29;20052;-93
2023/10/10 11:50:50;;;;;;;10.30;4.35;;;16.10;80.20;;;;;;4828987;29;20046;-93
2023/10/10 11:53:30;;;;;;;8.18;3.47;;;16.10;80.60;;;;;;4828450;29;20516;-94
2023/10/10 11:56:13;;;;;;;6.78;2.53;;;16.10;79.90;;;;;;4828470;29;20554;-93
2023/10/10 11:58:43;;;;;;;7.80;3.58;;;16.00;78.10;;;;;;4813420;29;20050;-93
2023/10/10 12:01:17;;;;;;;7.33;3.23;;;16.00;77.90;;;;;;4828366;29;20058;-93
2023/10/10 12:03:44;;;;;;;7.72;3.50;;;16.00;78.60;;;;;;4813246;29;20061;-94
2023/10/10 12:06:19;;;;;;;9.75;3.60;;;16.00;77.90;;;;;;4813411;29;20492;-93
2023/10/10 12:08:52;;;;;;;9.73;3.90;;;15.90;77.90;;;;;;4828231;29;20058;-93
2023/10/10 12:11:20;;;;;;;9.65;4.43;;;15.90;78.30;;;;;;4813020;29;20504;-93
2023/10/10 12:13:50;;;;;;;8.97;4.20;;;16.00;78.70;;;;;;4812907;29;20144;-92
2023/10/10 12:16:18;;;;;;;9.25;4.00;;;16.00;77.50;;;;;;4828307;29;20053;-94
2023/10/10 12:18:52;;;;;;;9.40;4.35;;;16.10;77.70;;;;;;4812947;29;20081;-93
2023/10/10 12:21:21;;;;;;;17.45;11.38;;;16.10;77.70;;;;;;4813234;29;20065;-92
2023/10/10 12:23:55;;;;;;;11.05;5.88;;;16.20;77.80;;;;;;4812982;29;20060;-94
2023/10/10 12:26:35;;;;;;;15.10;11.67;;;16.20;77.90;;;;;;4828333;29;20050;-93
2023/10/10 12:29:03;;;;;;;11.95;7.65;;;16.20;77.60;;;;;;4828056;29;20054;-94
2023/10/10 12:31:33;;;;;;;10.80;6.43;;;16.20;76.80;;;;;;4812980;29;20118;-93
2023/10/10 12:34:01;;;;;;;11.65;6.10;;;16.10;76.60;;;;;;4813119;29;20054;-94
2023/10/10 12:36:32;;;;;;;11.07;4.80;;;16.20;76.90;;;;;;4813222;29;20050;-93
2023/10/10 12:39:04;;;;;;;11.77;5.20;;;16.30;76.70;;;;;;4812949;29;20203;-93
2023/10/10 12:41:39;;;;;;;12.23;5.85;;;16.30;76.80;;;;;;4813124;29;20085;-92
2023/10/10 12:44:06;;;;;;;13.82;6.20;;;16.30;76.80;;;;;;4812766;29;20053;-93
2023/10/10 12:46:34;;;;;;;10.60;5.55;;;16.40;76.70;;;;;;4812777;29;20049;-94
2023/10/10 12:49:01;;;;;;;13.35;6.03;;;16.50;76.40;;;;;;4813038;29;20062;-93
2023/10/10 12:51:28;;;;;;;10.93;6.07;;;16.60;76.80;;;;;;4827734;29;20059;-93
2023/10/10 12:54:01;;;;;;;10.82;5.47;;;16.60;76.80;;;;;;4812936;29;20148;-93
2023/10/10 12:56:28;;;;;;;12.27;6.97;;;16.60;76.70;;;;;;4812664;29;20050;-92
2023/10/10 12:59:03;;;;;;;186.85;166.05;;;16.60;77.20;;;;;;4827703;29;20061;-93
2023/10/10 13:01:55;;;;;;;57.33;50.92;;;16.70;76.90;;;;;;4830314;29;20054;-93
2023/10/10 13:04:28;;;;;;;1999.90;999.90;;;16.60;77.60;;;;;;4827657;29;20416;-92
2023/10/10 13:07:02;;;;;;;1999.90;999.90;;;16.60;77.20;;;;;;4827690;29;20061;-94
2023/10/10 13:09:31;;;;;;;1999.90;999.90;;;16.60;77.80;;;;;;4827606;29;20119;-93
2023/10/10 13:12:02;;;;;;;1999.90;999.90;;;16.70;77.40;;;;;;4827635;29;20061;-93
2023/10/10 13:14:33;;;;;;;1999.90;999.90;;;16.80;76.80;;;;;;4829081;29;20049;-96
2023/10/10 13:19:48;;;;;;;1999.90;999.90;;;17.10;76.30;;;;;;4842714;29;20076;-94
2023/10/10 13:22:20;;;;;;;1999.90;999.90;;;17.20;75.20;;;;;;4827680;29;20501;-93
2023/10/10 13:24:49;;;;;;;1999.90;999.90;;;17.20;75.20;;;;;;4827734;29;20102;-94
2023/10/10 13:27:17;;;;;;;1999.90;999.90;;;17.10;75.30;;;;;;4831858;29;20054;-94
2023/10/10 13:29:45;;;;;;;1999.90;999.90;;;17.10;74.60;;;;;;4831382;29;20046;-94
2023/10/10 13:32:12;;;;;;;1999.90;999.90;;;17.10;74.00;;;;;;4833187;29;20575;-95
2023/10/10 13:34:39;;;;;;;1999.90;999.90;;;17.10;74.70;;;;;;4830629;29;20050;-94
2023/10/10 13:37:07;;;;;;;1010.15;509.08;;;17.10;73.60;;;;;;4815527;29;20060;-93
2023/10/10 13:39:47;;;;;;;8.65;4.45;;;17.10;73.70;;;;;;4830597;29;20528;-93
2023/10/10 13:42:16;;;;;;;9.10;4.30;;;17.20;73.80;;;;;;4815893;29;20136;-93
2023/10/10 13:44:43;;;;;;;8.00;3.95;;;17.30;73.10;;;;;;4816267;29;20050;-91
2023/10/10 13:47:11;;;;;;;9.48;3.88;;;17.50;72.90;;;;;;4829439;29;20050;-90
2023/10/10 13:49:44;;;;;;;8.43;3.80;;;17.60;72.80;;;;;;4822522;29;20053;-92
2023/10/10 13:52:13;;;;;;;6.88;3.20;;;17.60;72.00;;;;;;4814631;29;20042;-91
2023/10/10 13:54:40;;;;;;;6.80;2.87;;;17.60;71.10;;;;;;4814517;29;20042;-93
2023/10/10 13:57:07;;;;;;;6.28;2.88;;;17.60;71.20;;;;;;4814494;29;20056;-93
2023/10/10 13:59:35;;;;;;;6.95;2.75;;;17.50;71.20;;;;;;4815344;29;20122;-91
2023/10/10 14:02:04;;;;;;;6.95;3.10;;;17.50;71.50;;;;;;4813959;29;20068;-93
2023/10/10 14:04:46;;;;;;;7.68;3.55;;;17.50;71.90;;;;;;4814418;29;20053;-92
2023/10/10 14:07:16;;;;;;;7.37;3.20;;;17.50;72.20;;;;;;4829918;29;20050;-92
2023/10/10 14:09:48;;;;;;;7.13;3.00;;;17.50;72.20;;;;;;4829659;29;20091;-92
2023/10/10 14:12:31;;;;;;;7.22;2.75;;;17.50;73.10;;;;;;4816066;29;20501;-92
2023/10/10 14:15:01;;;;;;;8.00;2.92;;;17.50;73.30;;;;;;4829974;29;20081;-92
2023/10/10 14:17:29;;;;;;;16.15;7.30;;;17.50;72.70;;;;;;4822160;29;20042;-93
2023/10/10 14:19:58;;;;;;;13.23;5.80;;;17.40;72.10;;;;;;4815012;29;20050;-94
2023/10/10 14:22:25;;;;;;;9.43;4.35;;;17.40;72.60;;;;;;4814751;29;20049;-94
2023/10/10 14:25:01;;;;;;;8.38;3.30;;;17.40;72.20;;;;;;4816964;29;20058;-94
2023/10/10 14:27:28;;;;;;;8.38;3.50;;;17.30;72.70;;;;;;4814405;29;20065;-96
2023/10/10 14:29:55;;;;;;;8.27;3.55;;;17.40;72.90;;;;;;4814194;29;20050;-93
2023/10/10 14:32:27;;;;;;;8.37;3.30;;;17.40;73.30;;;;;;4829135;29;20054;-95
2023/10/10 14:35:05;;;;;;;7.63;3.42;;;17.40;72.80;;;;;;4816396;29;20061;-96
2023/10/10 14:37:32;;;;;;;6.43;2.95;;;17.40;73.30;;;;;;4814900;29;20527;-95
2023/10/10 14:40:20;;;;;;;15.88;3.60;;;17.40;74.20;;;;;;4829347;29;20060;-95
2023/10/10 14:42:47;;;;;;;7.20;3.40;;;17.30;74.60;;;;;;4811351;29;20497;-95
2023/10/10 14:45:14;;;;;;;7.80;3.40;;;17.30;74.20;;;;;;4818505;29;20417;-96
2023/10/10 14:47:43;;;;;;;7.13;2.72;;;17.30;74.30;;;;;;4814356;29;20042;-95
2023/10/10 14:50:12;;;;;;;12.68;2.90;;;17.20;74.30;;;;;;4814706;29;20141;-94
2023/10/10 14:52:47;;;;;;;11.93;2.88;;;17.20;73.70;;;;;;4814361;29;20054;-95
2023/10/10 14:55:24;;;;;;;16.92;3.50;;;17.20;73.80;;;;;;4814447;29;20075;-94
2023/10/10 14:57:55;;;;;;;12.47;2.63;;;17.20;74.40;;;;;;4812249;29;20043;-95
2023/10/10 15:00:28;;;;;;;10.32;2.95;;;17.20;74.20;;;;;;4811247;29;20046;-96
2023/10/10 15:02:56;;;;;;;10.40;2.70;;;17.20;74.60;;;;;;4812536;29;20051;-95
2023/10/10 15:05:25;;;;;;;6.85;2.53;;;17.20;74.60;;;;;;4811379;29;20593;-94
2023/10/10 15:07:53;;;;;;;6.43;2.22;;;17.20;75.20;;;;;;4811530;29;20050;-95
2023/10/10 15:10:25;;;;;;;9.13;2.27;;;17.10;75.30;;;;;;4811246;29;20386;-96
2023/10/10 15:12:54;;;;;;;6.55;1.90;;;17.10;74.70;;;;;;4811390;29;20509;-95
2023/10/10 15:15:22;;;;;;;6.45;2.30;;;17.00;74.40;;;;;;4796869;29;20488;-94
2023/10/10 15:17:50;;;;;;;8.23;3.33;;;17.00;74.90;;;;;;4826722;29;20078;-96
2023/10/10 15:20:18;;;;;;;8.18;3.75;;;16.90;75.70;;;;;;4796204;29;20576;-95
2023/10/10 15:22:45;;;;;;;9.93;4.93;;;16.80;76.50;;;;;;4826496;29;20050;-94
2023/10/10 15:25:14;;;;;;;12.43;5.50;;;16.80;77.10;;;;;;4826634;29;20058;-95
2023/10/10 15:27:42;;;;;;;11.10;5.47;;;16.60;77.40;;;;;;4826416;29;20055;-95
2023/10/10 15:30:10;;;;;;;11.43;5.78;;;16.60;77.80;;;;;;4826752;29;20538;-95
2023/10/10 15:32:46;;;;;;;14.15;6.82;;;16.50;77.90;;;;;;4828180;29;20046;-96
2023/10/10 15:35:16;;;;;;;14.40;7.67;;;16.40;78.10;;;;;;4829244;29;20071;-95
2023/10/10 15:37:46;;;;;;;13.00;7.10;;;16.40;78.20;;;;;;4811713;29;20493;-95
2023/10/10 15:40:20;;;;;;;14.10;6.70;;;16.30;78.50;;;;;;4829035;29;20429;-93
2023/10/10 15:42:52;;;;;;;12.02;6.80;;;16.10;78.80;;;;;;4798039;29;20046;-96
2023/10/10 15:45:20;;;;;;;12.90;6.38;;;16.10;79.00;;;;;;4804891;29;20050;-92
2023/10/10 15:47:52;;;;;;;13.50;7.20;;;16.10;78.90;;;;;;4828506;29;20106;-93